Latest Weather Observations for Warwick

IDQ60801

Issued at 11:42 am EST Thursday 21 March 2019 (issued every 10 minutes, with the page automatically refreshed every 10 minutes)

About weather observations | Map of weather stations | Latest weather observations for QLD | Other Formats
Station Details ID: 041525 Name: WARWICK Lat: -28.21 Lon: 152.10 Height: 475.4 m
Data from the previous 72 hours. | See also: Recent months at Warwick
Date/Time
EST
Temp
°C
App
Temp
°C
Dew
Point
°C
Rel
Hum
%
Delta-T
°C
Wind Press
QNH
hPa
Press
MSL
hPa
Rain since
9am
mm
Dir  Spd
km/h
Gust
km/h
Spd
kts
Gust
kts
21/11:30am 28.1 29.9 18.2 55 6.4 SSE 6 13 3 7 1015.5 1013.2 0.0
21/11:00am 27.7 29.4 18.4 57 6.0 SSE 7 13 4 7 1015.8 1013.5 0.0
21/10:30am 25.8 26.3 17.4 59 5.4 ENE 11 17 6 9 1016.2 1014.0 0.0
21/10:00am 26.5 28.6 19.4 65 4.7 SE 7 15 4 8 1016.4 1014.2 0.0
21/09:30am 25.8 27.5 19.4 67 4.2 SSE 9 17 5 9 1016.4 1014.2 0.0
21/09:00am 24.6 26.2 17.8 66 4.3 SE 6 13 3 7 1016.5 1014.3 0.0
21/08:30am 24.0 25.7 18.4 71 3.6 E 7 11 4 6 1016.2 1014.0 0.0
21/08:00am 22.8 25.4 18.3 76 2.9 SE 2 9 1 5 1015.9 1013.6 0.0
21/07:30am 21.5 24.6 18.7 84 1.8 CALM 0 0 0 0 1015.8 1013.5 0.0
21/07:00am 20.7 23.9 18.8 89 1.2 CALM 0 0 0 0 1015.4 1013.1 0.0
21/06:30am 19.3 22.4 18.6 96 0.4 CALM 0 0 0 0 1015.3 1013.0 0.0
21/06:00am 18.9 20.9 18.7 99 0.1 NE 6 9 3 5 1015.1 1012.8 0.0
21/05:30am 19.5 22.6 18.7 95 0.5 CALM 0 0 0 0 1014.7 1012.5 0.0
21/05:00am 20.1 23.5 19.3 95 0.5 CALM 0 0 0 0 1014.5 1012.3 0.0
21/04:30am 19.9 23.2 19.2 96 0.4 CALM 0 0 0 0 1014.1 1011.9 0.0
21/04:00am 19.7 22.9 18.9 95 0.5 CALM 0 0 0 0 1013.9 1011.6 0.0
21/03:30am 19.8 22.9 18.6 93 0.8 CALM 0 0 0 0 1013.9 1011.6 0.0
21/03:00am 20.3 23.2 19.0 92 0.8 ESE 2 7 1 4 1014.0 1011.7 0.0
21/02:30am 20.4 22.6 19.1 92 0.8 SE 6 9 3 5 1014.1 1011.9 0.0
21/02:00am 20.2 22.3 18.9 92 0.8 SE 6 11 3 6 1014.2 1012.0 0.0
21/01:30am 20.1 22.0 18.9 93 0.8 SE 7 11 4 6 1014.4 1012.2 0.0
21/01:00am 20.3 21.7 19.5 95 0.5 SSE 11 17 6 9 1014.5 1012.3 0.0
21/12:30am 20.3 23.0 19.5 95 0.5 ESE 4 9 2 5 1014.9 1012.7 0.0
21/12:00am 20.2 23.1 19.0 93 0.8 ESE 2 7 1 4 1015.3 1013.0 0.0
 
Date/Time
EST
Temp
°C
App
Temp
°C
Dew
Point
°C
Rel
Hum
%
Delta-T
°C
Wind Press
QNH
hPa
Press
MSL
hPa
Rain since
9am
mm
Dir  Spd
km/h
Gust
km/h
Spd
kts
Gust
kts
20/11:30pm 20.6 22.8 19.3 92 0.8 SE 6 11 3 6 1015.5 1013.2 0.0
20/11:00pm 20.6 22.7 18.9 90 1.1 SE 6 11 3 6 1015.4 1013.1 0.0
20/10:30pm 21.1 22.7 19.2 89 1.2 SE 9 17 5 9 1015.2 1012.9 0.0
20/10:00pm 21.5 22.7 19.1 86 1.5 SSE 11 17 6 9 1015.1 1012.8 0.0
20/09:30pm 22.0 23.5 19.0 83 1.9 SE 9 17 5 9 1014.8 1012.6 0.0
20/09:00pm 22.5 24.7 19.1 81 2.2 SE 6 11 3 6 1014.6 1012.4 0.0
20/08:30pm 23.0 24.5 18.1 74 3.1 ESE 7 19 4 10 1014.4 1012.2 0.0
20/08:00pm 23.8 25.6 19.5 77 2.8 SE 9 17 5 9 1013.9 1011.6 0.0
20/07:30pm 24.4 24.1 19.2 73 3.4 SSE 19 30 10 16 1013.0 1010.7 0.0
20/07:00pm 25.4 26.5 18.1 64 4.7 SSE 9 17 5 9 1012.2 1009.9 0.0
20/06:30pm 26.5 27.5 17.8 58 5.6 SSE 9 13 5 7 1011.6 1009.3 0.0
20/06:00pm 28.5 28.9 16.4 48 7.7 S 9 13 5 7 1011.3 1009.0 0.0
20/05:30pm 30.7 28.7 10.1 28 11.9 W 11 17 6 9 1010.9 1008.6 0.0
20/05:00pm 31.3 28.6 8.9 25 12.8 W 13 24 7 13 1010.7 1008.4 0.0
20/04:30pm 30.3 28.6 11.3 31 11.2 WSW 11 17 6 9 1010.6 1008.3 0.0
20/04:00pm 31.9 30.2 11.1 28 12.3 NW 11 17 6 9 1010.4 1008.2 0.0
20/03:30pm 31.4 29.3 11.2 29 11.9 WNW 13 20 7 11 1010.6 1008.3 0.0
20/03:00pm 31.2 28.7 11.1 29 11.9 NW 15 24 8 13 1011.0 1008.7 0.0
20/02:30pm 30.8 28.3 11.2 30 11.6 NW 15 20 8 11 1011.1 1008.8 0.0
20/02:00pm 30.3 28.9 12.2 33 10.8 NW 11 19 6 10 1011.4 1009.1 0.0
20/01:30pm 30.3 28.3 12.7 34 10.6 W 15 22 8 12 1011.9 1009.6 0.0
20/01:00pm 29.6 27.8 13.4 37 9.8 W 15 24 8 13 1012.3 1010.1 0.0
20/12:30pm 28.9 28.9 15.1 43 8.6 WNW 9 17 5 9 1012.8 1010.5 0.0
20/12:00pm 29.0 28.5 15.9 45 8.2 WSW 13 19 7 10 1013.2 1010.9 0.0
20/11:30am 28.1 28.3 16.7 50 7.2 WSW 11 15 6 8 1013.5 1011.2 0.0
20/11:00am 27.6 29.7 17.2 53 6.6 ENE 2 7 1 4 1013.8 1011.5 0.0
20/10:30am 26.7 27.8 17.2 56 6.1 S 7 15 4 8 1014.0 1011.7 0.0
20/10:00am 25.7 27.4 17.1 59 5.5 S 4 11 2 6 1014.2 1012.0 0.0
20/09:30am 24.5 25.8 17.2 63 4.6 S 6 9 3 5 1014.4 1012.2 0.0
20/09:00am 22.5 24.2 17.2 72 3.3 SW 4 9 2 5 1014.5 1012.3 0.0
20/08:30am 21.4 23.4 17.0 76 2.7 SE 2 9 1 5 1014.3 1012.1 0.0
20/08:00am 20.3 21.5 16.9 81 2.1 E 6 9 3 5 1014.2 1012.0 0.0
20/07:30am 19.6 21.1 17.7 89 1.2 NE 6 7 3 4 1014.0 1011.7 0.0
20/07:00am 17.6 18.7 16.6 94 0.6 NE 6 9 3 5 1013.9 1011.6 0.0
20/06:30am 16.9 18.1 16.9 100 0.0 NNE 6 9 3 5 1013.7 1011.4 0.0
20/06:00am 15.7 17.1 15.4 98 0.2 NE 2 9 1 5 1013.3 1011.0 0.0
20/05:30am 16.4 18.4 16.1 98 0.2 CALM 0 0 0 0 1013.1 1010.8 0.0
20/05:00am 17.6 20.1 17.3 98 0.2 CALM 0 0 0 0 1012.8 1010.5 0.0
20/04:30am 17.6 20.1 17.3 98 0.2 CALM 0 0 0 0 1012.6 1010.4 0.0
20/04:00am 18.0 19.4 17.8 99 0.1 NE 7 9 4 5 1012.4 1010.2 0.0
20/03:30am 18.0 19.8 17.5 97 0.3 NNE 4 7 2 4 1012.4 1010.2 0.0
20/03:00am 18.3 20.9 17.5 95 0.5 CALM 0 0 0 0 1012.3 1010.1 0.0
20/02:30am 18.5 21.0 17.3 93 0.7 CALM 0 6 0 3 1012.4 1010.2 0.0
20/02:00am 18.3 20.7 17.1 93 0.7 CALM 0 0 0 0 1012.5 1010.3 0.0
20/01:30am 18.2 19.9 16.2 88 1.2 NE 2 7 1 4 1012.8 1010.5 0.0
20/01:00am 18.4 20.2 15.6 84 1.7 CALM 0 0 0 0 1012.8 1010.5 0.0
20/12:30am 19.6 21.3 15.3 76 2.6 CALM 0 0 0 0 1012.9 1010.6 0.0
20/12:00am 19.7 21.1 14.3 71 3.2 CALM 0 7 0 4 1012.9 1010.6 0.0
 
Date/Time
EST
Temp
°C
App
Temp
°C
Dew
Point
°C
Rel
Hum
%
Delta-T
°C
Wind Press
QNH
hPa
Press
MSL
hPa
Rain since
9am
mm
Dir  Spd
km/h
Gust
km/h
Spd
kts
Gust
kts
19/11:30pm 18.6 19.0 14.7 78 2.3 NNW 6 7 3 4 1013.0 1010.7 0.0
19/11:00pm 19.2 20.6 14.5 74 2.8 CALM 0 0 0 0 1013.1 1010.8 0.0
19/10:30pm 19.0 19.2 14.7 76 2.6 WSW 7 11 4 6 1013.2 1010.9 0.0
19/10:00pm 19.2 20.0 14.7 75 2.7 WNW 4 7 2 4 1013.3 1011.0 0.0
19/09:30pm 21.0 19.8 13.9 64 4.2 E 13 15 7 8 1013.0 1010.7 0.0
19/09:00pm 21.3 22.7 14.5 65 4.1 CALM 0 0 0 0 1013.0 1010.7 0.0
19/08:30pm 22.0 23.1 13.6 59 5.0 CALM 0 0 0 0 1013.0 1010.7 0.0
19/08:00pm 22.3 23.6 14.2 60 4.8 CALM 0 0 0 0 1013.0 1010.7 0.0
19/07:30pm 22.1 23.7 15.0 64 4.3 CALM 0 0 0 0 1012.8 1010.5 0.0
19/07:00pm 22.9 24.2 14.2 58 5.2 CALM 0 0 0 0 1012.1 1009.8 0.0
19/06:30pm 23.4 24.8 14.4 57 5.4 CALM 0 0 0 0 1011.9 1009.6 0.0
19/06:00pm 25.4 27.0 14.8 52 6.5 CALM 0 0 0 0 1011.6 1009.3 0.0
19/05:30pm 28.4 28.0 11.0 34 10.1 W 4 9 2 5 1011.3 1009.0 0.0
19/05:00pm 29.3 27.3 11.4 33 10.5 W 13 22 7 12 1010.9 1008.6 0.0
19/04:30pm 29.9 27.7 10.9 31 11.1 W 13 24 7 13 1010.8 1008.5 0.0
19/04:00pm 29.5 26.3 11.1 32 10.8 W 19 28 10 15 1010.6 1008.3 0.0
19/03:30pm 30.5 27.3 9.9 28 11.9 W 17 30 9 16 1010.6 1008.3 0.0
19/03:00pm 30.4 27.0 9.3 27 12.1 WSW 17 24 9 13 1010.7 1008.4 0.0
19/02:30pm 30.0 27.6 10.0 29 11.5 WNW 13 19 7 10 1010.9 1008.6 0.0
19/02:00pm 30.3 27.6 11.8 32 11.0 W 17 24 9 13 1011.2 1008.9 0.0
19/01:30pm 30.4 27.5 10.9 30 11.4 WSW 17 28 9 15 1011.6 1009.3 0.0
19/01:00pm 30.0 26.8 10.0 29 11.5 WSW 17 30 9 16 1011.9 1009.6 0.0
19/12:30pm 29.3 28.1 12.7 36 10.0 WNW 11 26 6 14 1012.3 1010.1 0.0
19/12:00pm 28.8 27.7 13.1 38 9.5 W 11 22 6 12 1013.0 1010.7 0.0
19/11:30am 27.8 26.8 13.3 40 8.7 WNW 11 20 6 11 1013.7 1011.4 0.0
19/11:00am 27.2 26.1 13.2 42 8.4 W 11 15 6 8 1014.2 1012.0 0.0
19/10:30am 26.8 25.1 11.3 38 9.0 WSW 11 19 6 10 1014.5 1012.3 0.0
19/10:00am 25.8 25.8 15.2 52 6.5 WNW 9 15 5 8 1014.8 1012.6 0.0
19/09:30am 24.4 24.6 14.8 55 5.8 WNW 7 13 4 7 1014.8 1012.6 0.0
19/09:00am 22.8 25.0 16.6 68 3.9 CALM 0 0 0 0 1015.1 1012.8 2.4
19/08:30am 20.9 23.3 16.9 78 2.5 CALM 0 0 0 0 1014.8 1012.6 2.4
19/08:00am 20.0 22.5 17.2 84 1.7 CALM 0 0 0 0 1014.7 1012.5 2.4
19/07:30am 17.9 20.2 16.8 93 0.7 CALM 0 0 0 0 1014.6 1012.4 2.4
19/07:00am 17.6 20.2 17.4 99 0.1 CALM 0 0 0 0 1014.2 1012.0 2.4
19/06:30am 15.8 17.7 15.8 100 0.0 CALM 0 0 0 0 1014.0 1011.7 2.4
19/06:00am 15.1 16.8 15.1 100 0.0 CALM 0 0 0 0 1013.8 1011.5 2.4
19/05:30am 15.3 16.7 15.3 100 0.0 NNE 2 7 1 4 1013.5 1011.2 2.4
19/05:00am 15.6 17.4 15.6 100 0.0 CALM 0 0 0 0 1013.2 1010.9 2.4
19/04:30am 15.4 17.1 15.2 99 0.1 CALM 0 0 0 0 1013.1 1010.8 2.4
19/04:00am 16.3 18.4 16.3 100 0.0 CALM 0 0 0 0 1013.0 1010.7 2.4
19/03:30am 16.7 18.9 16.5 99 0.1 CALM 0 0 0 0 1013.0 1010.7 2.4
19/03:00am 16.6 18.8 16.4 99 0.1 CALM 0 0 0 0 1012.9 1010.6 2.4
19/02:30am 16.9 19.2 16.7 99 0.1 CALM 0 0 0 0 1013.0 1010.7 2.4
19/02:00am 17.1 19.5 17.1 100 0.0 CALM 0 0 0 0 1013.2 1010.9 2.4
19/01:30am 17.2 19.7 17.2 100 0.0 CALM 0 0 0 0 1013.4 1011.1 2.4
19/01:00am 17.5 20.0 17.2 98 0.2 CALM 0 0 0 0 1013.6 1011.3 2.4
19/12:30am 17.9 20.5 17.4 97 0.3 CALM 0 0 0 0 1013.8 1011.5 2.4
19/12:00am 18.2 20.6 17.0 93 0.7 CALM 0 0 0 0 1014.1 1011.9 2.4
 
Date/Time
EST
Temp
°C
App
Temp
°C
Dew
Point
°C
Rel
Hum
%
Delta-T
°C
Wind Press
QNH
hPa
Press
MSL
hPa
Rain since
9am
mm
Dir  Spd
km/h
Gust
km/h
Spd
kts
Gust
kts
18/11:30pm 19.1 21.6 17.2 89 1.2 CALM 0 0 0 0 1014.0 1011.7 2.4
18/11:00pm 19.5 20.9 16.5 83 1.8 SSE 4 7 2 4 1014.2 1012.0 2.4
18/10:30pm 22.0 22.3 16.9 73 3.2 NNW 11 15 6 8 1014.3 1012.1 2.4
18/10:00pm 22.2 22.8 17.6 75 2.9 NNW 11 20 6 11 1014.4 1012.2 2.4
18/09:30pm 21.8 24.2 17.0 74 3.0 CALM 0 0 0 0 1014.5 1012.3 2.4
18/09:00pm 22.2 22.8 15.8 67 3.9 N 7 11 4 6 1014.4 1012.2 2.4
18/08:30pm 21.4 22.0 15.9 71 3.4 NE 7 11 4 6 1014.1 1011.9 2.4
18/08:00pm 21.8 22.1 14.9 65 4.2 WNW 7 9 4 5 1013.6 1011.3 2.4
18/07:30pm 23.3 23.6 15.1 60 5.0 WNW 7 11 4 6 1013.3 1011.0 2.4
18/07:00pm 23.6 23.9 15.1 59 5.2 WNW 7 9 4 5 1012.6 1010.4 2.4
18/06:30pm 24.2 24.9 16.2 61 5.0 WNW 7 9 4 5 1012.1 1009.8 2.4
18/06:00pm 26.2 26.4 14.6 48 7.1 WSW 7 11 4 6 1011.7 1009.4 2.4
18/05:30pm 28.2 26.9 12.5 37 9.4 WSW 11 15 6 8 1011.5 1009.2 2.4
18/05:00pm 28.5 26.8 13.6 40 9.1 SSW 15 28 8 15 1011.5 1009.2 2.4
18/04:30pm 28.2 27.0 14.1 42 8.6 NNW 13 20 7 11 1011.3 1009.0 2.4
18/04:00pm 28.0 26.9 15.3 46 7.9 NW 15 20 8 11 1011.2 1008.9 2.4
18/03:30pm 28.2 27.3 14.8 44 8.3 NW 13 20 7 11 1011.2 1008.9 2.4
18/03:00pm 29.0 28.0 15.5 44 8.5 WNW 15 24 8 13 1011.4 1009.1 2.4
18/02:30pm 27.7 26.1 14.0 43 8.3 NW 15 28 8 15 1011.8 1009.5 2.4
18/02:00pm 27.4 26.0 14.4 45 8.0 WNW 15 24 8 13 1012.4 1010.2 2.4
18/01:30pm 27.1 25.9 15.1 47 7.4 WSW 15 22 8 12 1012.6 1010.4 2.4
18/01:00pm 26.0 25.2 16.0 54 6.2 WNW 15 20 8 11 1013.5 1011.2 2.4
18/12:30pm 25.5 26.0 19.2 68 4.1 WSW 15 26 8 14 1013.8 1011.5 2.4
18/12:00pm 22.2 21.4 18.4 79 2.4 WSW 20 30 11 16 1014.3 1012.1 2.2

Other formats

Comma delimited format used in spreadsheet applications
http://www.bom.gov.au/fwo/IDQ60801/IDQ60801.94555.axf

JavaScript Object Notation format (JSON) in row-major order
http://www.bom.gov.au/fwo/IDQ60801/IDQ60801.94555.json

Data quality

Most of these data are generated automatically and are frequently updated. Quality checks on data are not normally performed. It is possible for incorrect values to appear. Refer to information at About Latest Weather Observations and please check the disclaimer before using these data.